createdAt,value
2022-12-23T00:01:25.966Z,0.26
2022-12-23T00:03:29.918Z,0.28
2022-12-23T00:05:38.422Z,0.28
2022-12-23T00:07:41.289Z,0.25
2022-12-23T00:09:43.955Z,0.25
2022-12-23T00:12:05.308Z,0.28
2022-12-23T00:14:26.249Z,0.28
2022-12-23T00:16:29.575Z,0.30
2022-12-23T00:18:32.847Z,0.30
2022-12-23T00:20:35.514Z,0.30
2022-12-23T00:22:56.709Z,0.27
2022-12-23T00:24:59.317Z,0.27
2022-12-23T00:27:01.881Z,0.27
2022-12-23T00:29:04.445Z,0.29
2022-12-23T00:31:08.000Z,0.32
2022-12-23T00:33:10.786Z,0.32
2022-12-23T00:35:13.398Z,0.34
2022-12-23T00:37:15.908Z,0.35
2022-12-23T00:39:37.178Z,0.36
2022-12-23T00:41:58.146Z,0.37
2022-12-23T00:44:01.526Z,0.35
2022-12-23T00:46:04.210Z,0.40
2022-12-23T00:48:25.261Z,0.39
2022-12-23T00:50:28.580Z,0.40
2022-12-23T00:52:31.500Z,0.40
2022-12-23T00:54:34.185Z,0.41
2022-12-23T00:56:36.911Z,0.41
2022-12-23T00:58:39.517Z,0.41
2022-12-23T01:01:01.082Z,0.43
2022-12-23T01:03:22.191Z,0.42
2022-12-23T01:05:36.792Z,0.43
2022-12-23T01:07:39.429Z,0.43
2022-12-23T01:09:43.220Z,0.45
2022-12-23T01:11:46.580Z,0.44
2022-12-23T01:13:49.193Z,0.46
2022-12-23T01:15:51.727Z,0.46
2022-12-23T01:17:54.350Z,0.47
2022-12-23T01:19:56.899Z,0.47
2022-12-23T01:21:59.446Z,0.49
2022-12-23T01:24:02.543Z,0.49
2022-12-23T01:26:07.058Z,0.50
2022-12-23T01:28:09.620Z,0.47
2022-12-23T01:30:12.498Z,0.46
2022-12-23T01:32:15.219Z,0.44
2022-12-23T01:34:18.193Z,0.46
2022-12-23T01:36:22.596Z,0.53
2022-12-23T01:38:25.137Z,0.54
2022-12-23T01:40:27.766Z,0.55
2022-12-23T01:42:45.475Z,0.57
2022-12-23T01:45:03.817Z,0.54
2022-12-23T01:47:13.046Z,0.56
2022-12-23T01:49:15.914Z,0.58
2022-12-23T01:51:27.288Z,0.56
2022-12-23T01:53:37.436Z,0.57
2022-12-23T01:55:54.907Z,0.58
2022-12-23T01:58:05.491Z,0.57
2022-12-23T02:00:27.639Z,0.57
2022-12-23T02:02:49.756Z,0.53
2022-12-23T02:04:53.058Z,0.51
2022-12-23T02:07:14.351Z,0.46
2022-12-23T02:09:21.612Z,0.51
2022-12-23T02:12:02.689Z,0.52
2022-12-23T02:14:40.915Z,0.51
2022-12-23T02:16:55.318Z,0.50
2022-12-23T02:19:15.106Z,0.54
2022-12-23T02:21:26.417Z,0.55
2022-12-23T02:24:16.773Z,0.55
2022-12-23T02:26:55.547Z,0.56
2022-12-23T02:29:34.868Z,0.59
2022-12-23T02:31:56.017Z,0.59
2022-12-23T02:34:16.934Z,0.62
2022-12-23T02:36:45.632Z,0.61
2022-12-23T02:39:00.668Z,0.61
2022-12-23T02:41:21.980Z,0.64
2022-12-23T02:43:41.069Z,0.63
2022-12-23T02:45:52.498Z,0.66
2022-12-23T02:48:07.068Z,0.67
2022-12-23T02:50:15.360Z,0.67
2022-12-23T02:52:21.124Z,0.70
2022-12-23T02:54:30.342Z,0.70
2022-12-23T02:56:37.241Z,0.71
2022-12-23T02:58:49.438Z,0.71
2022-12-23T03:00:53.344Z,0.72
2022-12-23T03:02:56.009Z,0.71
2022-12-23T03:05:00.900Z,0.74
2022-12-23T03:07:08.099Z,0.77
2022-12-23T03:09:17.673Z,0.75
2022-12-23T03:11:20.610Z,0.77
2022-12-23T03:13:47.868Z,0.77
2022-12-23T03:16:00.821Z,0.78
2022-12-23T03:18:44.285Z,0.73
2022-12-23T03:20:49.309Z,0.78
2022-12-23T03:23:01.916Z,0.80
2022-12-23T03:25:40.671Z,0.74
2022-12-23T03:27:52.615Z,0.74
2022-12-23T03:30:01.903Z,0.75
2022-12-23T03:32:08.443Z,0.76
2022-12-23T03:34:18.892Z,0.77
2022-12-23T03:36:34.885Z,0.77
2022-12-23T03:38:41.390Z,0.78
2022-12-23T03:41:01.166Z,0.77
2022-12-23T03:43:08.236Z,0.79
2022-12-23T03:45:38.541Z,0.81
2022-12-23T03:47:53.351Z,0.80
2022-12-23T03:50:10.618Z,0.80
2022-12-23T03:52:21.097Z,0.80
2022-12-23T03:54:31.334Z,0.80
2022-12-23T03:56:42.759Z,0.80
2022-12-23T03:58:48.899Z,0.81
2022-12-23T04:01:00.367Z,0.81
2022-12-23T04:03:25.356Z,0.81
2022-12-23T04:05:33.470Z,0.79
2022-12-23T04:07:52.046Z,0.78
2022-12-23T04:09:55.337Z,0.79
2022-12-23T04:11:59.222Z,0.80
2022-12-23T04:14:01.981Z,0.77
2022-12-23T04:16:05.531Z,0.78
2022-12-23T04:18:09.903Z,0.77
2022-12-23T04:20:12.723Z,0.78
2022-12-23T04:22:16.275Z,0.78
2022-12-23T04:24:18.858Z,0.81
2022-12-23T04:26:21.510Z,0.81
2022-12-23T04:28:24.110Z,0.80
2022-12-23T04:30:31.589Z,0.82
2022-12-23T04:32:37.333Z,0.84
2022-12-23T04:34:40.104Z,0.84
2022-12-23T04:36:42.774Z,0.86
2022-12-23T04:38:45.418Z,0.88
2022-12-23T04:40:48.261Z,0.90
2022-12-23T04:42:50.905Z,0.90
2022-12-23T04:44:53.523Z,0.92
2022-12-23T04:46:56.205Z,0.94
2022-12-23T04:48:58.840Z,0.94
2022-12-23T04:51:05.980Z,0.94
2022-12-23T04:53:08.588Z,0.95
2022-12-23T04:55:11.207Z,0.93
2022-12-23T04:57:15.341Z,0.94
2022-12-23T04:59:18.106Z,0.94
2022-12-23T05:01:20.770Z,0.97
2022-12-23T05:03:23.489Z,0.96
2022-12-23T05:05:26.141Z,0.97
2022-12-23T05:07:28.843Z,0.99
2022-12-23T05:09:31.579Z,1.00
2022-12-23T05:11:40.164Z,1.00
2022-12-23T05:13:44.858Z,1.01
2022-12-23T05:15:50.537Z,0.99
2022-12-23T05:17:53.172Z,1.03
2022-12-23T05:19:55.825Z,1.01
2022-12-23T05:21:58.442Z,1.03
2022-12-23T05:24:01.036Z,1.04
2022-12-23T05:26:03.967Z,1.05
2022-12-23T05:28:10.972Z,1.03
2022-12-23T05:30:13.717Z,1.04
2022-12-23T05:32:16.476Z,1.04
2022-12-23T05:34:19.070Z,1.03
2022-12-23T05:36:21.693Z,1.03
2022-12-23T05:38:24.923Z,1.05
2022-12-23T05:40:28.548Z,1.03
2022-12-23T05:42:32.525Z,1.08
2022-12-23T05:44:35.196Z,1.10
2022-12-23T05:46:37.965Z,1.11
2022-12-23T05:48:40.661Z,1.13
2022-12-23T05:50:43.464Z,1.12
2022-12-23T05:52:46.373Z,1.14
2022-12-23T05:54:49.938Z,1.14
2022-12-23T05:56:52.917Z,1.14
2022-12-23T05:58:55.477Z,1.17
2022-12-23T06:00:58.232Z,1.21
2022-12-23T06:03:01.647Z,1.22
2022-12-23T06:05:04.754Z,1.24
2022-12-23T06:07:07.770Z,1.26
2022-12-23T06:09:10.676Z,1.26
2022-12-23T06:11:13.760Z,1.28
2022-12-23T06:13:16.683Z,1.32
2022-12-23T06:15:19.322Z,1.31
2022-12-23T06:17:22.005Z,1.32
2022-12-23T06:19:24.825Z,1.30
2022-12-23T06:21:27.470Z,1.26
2022-12-23T06:23:30.110Z,1.24
2022-12-23T06:25:32.802Z,1.27
2022-12-23T06:27:35.794Z,1.29
2022-12-23T06:29:38.425Z,1.32
2022-12-23T06:31:41.065Z,1.32
2022-12-23T06:33:43.760Z,1.34
2022-12-23T06:35:46.406Z,1.37
2022-12-23T06:37:49.383Z,1.43
2022-12-23T06:39:52.109Z,1.43
2022-12-23T06:41:54.830Z,1.44
2022-12-23T06:43:57.360Z,1.47
2022-12-23T06:46:00.097Z,1.41
2022-12-23T06:48:02.772Z,1.43
2022-12-23T06:50:06.015Z,1.46
2022-12-23T06:52:08.674Z,1.52
2022-12-23T06:54:12.384Z,1.53
2022-12-23T06:56:14.997Z,1.56
2022-12-23T06:58:17.769Z,1.57
2022-12-23T07:00:20.699Z,1.60
2022-12-23T07:02:23.459Z,1.65
2022-12-23T07:04:26.443Z,1.69
2022-12-23T07:06:29.320Z,1.71
2022-12-23T07:08:31.875Z,1.72
2022-12-23T07:10:34.968Z,1.70
2022-12-23T07:12:37.818Z,1.73
2022-12-23T07:14:40.461Z,1.73
2022-12-23T07:16:43.231Z,1.72
2022-12-23T07:18:45.934Z,1.76
2022-12-23T07:20:48.521Z,1.75
2022-12-23T07:22:51.243Z,1.76
2022-12-23T07:24:53.855Z,1.79
2022-12-23T07:26:56.402Z,1.81
2022-12-23T07:28:59.168Z,1.84
2022-12-23T07:31:01.822Z,1.89
2022-12-23T07:33:04.511Z,1.78
2022-12-23T07:35:07.383Z,1.84
2022-12-23T07:37:09.926Z,1.85
2022-12-23T07:39:12.609Z,1.83
2022-12-23T07:41:15.277Z,1.76
2022-12-23T07:43:18.003Z,1.76
2022-12-23T07:45:20.659Z,1.75
2022-12-23T07:47:23.656Z,1.75
2022-12-23T07:49:26.263Z,1.72
2022-12-23T07:51:28.875Z,1.67
2022-12-23T07:53:31.747Z,1.65
2022-12-23T07:55:34.320Z,1.63
2022-12-23T07:57:38.403Z,1.67
2022-12-23T07:59:41.043Z,1.69
2022-12-23T08:01:43.923Z,1.66
2022-12-23T08:03:47.184Z,1.58
2022-12-23T08:05:59.902Z,1.50
2022-12-23T08:08:02.513Z,1.45
2022-12-23T08:10:06.850Z,1.44
2022-12-23T08:12:09.527Z,1.45
2022-12-23T08:14:12.264Z,1.47
2022-12-23T08:16:15.288Z,1.50
2022-12-23T08:18:17.947Z,1.49
2022-12-23T08:20:20.507Z,1.46
2022-12-23T08:22:23.867Z,1.40
2022-12-23T08:24:26.533Z,1.40
2022-12-23T08:26:29.185Z,1.43
2022-12-23T08:28:32.841Z,1.50
2022-12-23T08:30:35.731Z,1.54
2022-12-23T08:32:38.309Z,1.61
2022-12-23T08:34:40.905Z,1.65
2022-12-23T08:36:43.717Z,1.73
2022-12-23T08:38:46.387Z,1.79
2022-12-23T08:40:49.175Z,1.81
2022-12-23T08:42:51.883Z,1.81
2022-12-23T08:44:54.513Z,1.83
2022-12-23T08:46:57.487Z,1.83
2022-12-23T08:49:00.201Z,1.79
2022-12-23T08:51:05.629Z,1.81
2022-12-23T08:53:09.261Z,1.76
2022-12-23T08:55:11.920Z,1.73
2022-12-23T08:57:15.600Z,1.70
2022-12-23T08:59:19.805Z,1.73
2022-12-23T09:01:26.381Z,1.65
2022-12-23T09:03:29.122Z,1.65
2022-12-23T09:05:33.027Z,1.56
2022-12-23T09:07:35.900Z,1.45
2022-12-23T09:09:38.754Z,1.40
2022-12-23T09:11:42.153Z,1.37
2022-12-23T09:13:45.670Z,1.41
2022-12-23T09:15:48.351Z,1.41
2022-12-23T09:17:50.921Z,1.41
2022-12-23T09:19:53.608Z,1.43
2022-12-23T09:21:56.773Z,1.45
2022-12-23T09:23:59.369Z,1.42
2022-12-23T09:26:02.128Z,1.44
2022-12-23T09:28:06.906Z,1.40
2022-12-23T09:30:10.426Z,1.41
2022-12-23T09:32:13.288Z,1.41
2022-12-23T09:34:15.875Z,1.39
2022-12-23T09:36:19.305Z,1.35
2022-12-23T09:38:21.930Z,1.41
2022-12-23T09:40:24.753Z,1.41
2022-12-23T09:42:48.392Z,1.42
2022-12-23T09:45:13.895Z,1.42
2022-12-23T09:47:20.680Z,1.44
2022-12-23T09:49:24.445Z,1.40
2022-12-23T09:51:29.307Z,1.39
2022-12-23T09:53:50.326Z,1.38
2022-12-23T09:56:31.445Z,1.43
2022-12-23T09:58:55.628Z,1.41
2022-12-23T10:01:00.940Z,1.43
2022-12-23T10:03:26.275Z,1.47
2022-12-23T10:05:48.241Z,1.46
2022-12-23T10:08:24.238Z,1.44
2022-12-23T10:10:44.832Z,1.42
2022-12-23T10:12:51.670Z,1.39
2022-12-23T10:14:57.634Z,1.38
2022-12-23T10:17:13.108Z,1.38
2022-12-23T10:19:41.921Z,1.42
2022-12-23T10:22:02.666Z,1.42
2022-12-23T10:24:16.955Z,1.46
2022-12-23T10:26:32.087Z,1.51
2022-12-23T10:28:35.045Z,1.50
2022-12-23T10:33:21.427Z,1.58
2022-12-23T10:35:42.335Z,1.57
2022-12-23T10:37:54.665Z,1.61
2022-12-23T10:40:10.192Z,1.59
2022-12-23T10:42:27.890Z,1.59
2022-12-23T10:45:05.976Z,1.59
2022-12-23T10:47:30.360Z,1.62
2022-12-23T10:50:23.320Z,1.53
2022-12-23T10:52:30.235Z,1.52
2022-12-23T10:54:36.233Z,1.53
2022-12-23T10:56:39.907Z,1.52
2022-12-23T10:58:45.889Z,1.51
2022-12-23T11:01:15.101Z,1.49
2022-12-23T11:03:27.889Z,1.48
2022-12-23T11:05:30.910Z,1.41
2022-12-23T11:07:49.915Z,1.46
2022-12-23T11:09:57.472Z,1.47
2022-12-23T11:12:07.619Z,1.47
2022-12-23T11:14:40.473Z,1.48
2022-12-23T11:16:47.180Z,1.41
2022-12-23T11:18:58.456Z,1.43
2022-12-23T11:21:06.454Z,1.44
2022-12-23T11:23:27.912Z,1.42
2022-12-23T11:25:37.992Z,1.35
2022-12-23T11:27:45.155Z,1.38
2022-12-23T11:29:54.413Z,1.41
2022-12-23T11:31:57.495Z,1.42
2022-12-23T11:34:03.762Z,1.38
2022-12-23T11:36:14.723Z,1.38
2022-12-23T11:38:17.473Z,1.41
2022-12-23T11:40:28.312Z,1.35
2022-12-23T11:42:34.464Z,1.35
2022-12-23T11:44:46.199Z,1.33
2022-12-23T11:46:49.713Z,1.36
2022-12-23T11:49:27.353Z,1.36
2022-12-23T11:51:30.344Z,1.33
2022-12-23T11:53:33.205Z,1.35
2022-12-23T11:55:36.205Z,1.34
2022-12-23T11:57:44.687Z,1.36
2022-12-23T11:59:50.129Z,1.36
2022-12-23T12:01:53.453Z,1.35
2022-12-23T12:04:01.629Z,1.39
2022-12-23T12:06:06.397Z,1.36
2022-12-23T12:08:20.435Z,1.38
2022-12-23T12:10:28.292Z,1.37
2022-12-23T12:12:31.152Z,1.36
2022-12-23T12:14:54.553Z,1.41
2022-12-23T12:17:05.595Z,1.38
2022-12-23T12:19:19.978Z,1.39
2022-12-23T12:21:30.601Z,1.39
2022-12-23T12:24:08.302Z,1.38
2022-12-23T12:26:27.753Z,1.37
2022-12-23T12:28:38.974Z,1.38
2022-12-23T12:30:50.668Z,1.41
2022-12-23T12:33:13.753Z,1.40
2022-12-23T12:35:31.770Z,1.36
2022-12-23T12:37:55.910Z,1.35
2022-12-23T12:40:23.784Z,1.36
2022-12-23T12:42:41.382Z,1.35
2022-12-23T12:44:56.014Z,1.32
2022-12-23T12:49:57.034Z,1.33
2022-12-23T12:52:11.420Z,1.27
2022-12-23T12:54:38.359Z,1.27
2022-12-23T12:56:48.732Z,1.30
2022-12-23T12:58:51.437Z,1.25
2022-12-23T13:01:12.456Z,1.24
2022-12-23T13:03:28.200Z,1.24
2022-12-23T13:05:47.164Z,1.26
2022-12-23T13:08:11.466Z,1.25
2022-12-23T13:10:20.126Z,1.24
2022-12-23T13:12:49.755Z,1.24
2022-12-23T13:15:24.816Z,1.21
2022-12-23T13:17:32.769Z,1.20
2022-12-23T13:19:35.281Z,1.25
2022-12-23T13:21:52.815Z,1.26
2022-12-23T13:24:20.696Z,1.24
2022-12-23T13:26:38.346Z,1.22
2022-12-23T13:28:51.143Z,1.25
2022-12-23T13:31:11.284Z,1.25
2022-12-23T13:33:46.543Z,1.24
2022-12-23T13:36:06.736Z,1.20
2022-12-23T13:38:12.421Z,1.20
2022-12-23T13:40:30.240Z,1.16
2022-12-23T13:42:42.622Z,1.19
2022-12-23T13:44:45.919Z,1.23
2022-12-23T13:47:24.411Z,1.27
2022-12-23T13:49:38.438Z,1.23
2022-12-23T13:52:20.164Z,1.27
2022-12-23T13:54:38.558Z,1.26
2022-12-23T13:56:53.655Z,1.17
2022-12-23T13:58:57.074Z,1.20
2022-12-23T14:01:08.805Z,1.22
2022-12-23T14:03:12.979Z,1.25
2022-12-23T14:05:32.464Z,1.20
2022-12-23T14:07:35.161Z,1.21
2022-12-23T14:09:39.240Z,1.20
2022-12-23T14:11:44.115Z,1.21
2022-12-23T14:13:56.573Z,1.19
2022-12-23T14:16:11.391Z,1.18
2022-12-23T14:18:36.951Z,1.15
2022-12-23T14:21:04.484Z,1.08
2022-12-23T14:23:17.424Z,1.11
2022-12-23T14:25:44.281Z,1.11
2022-12-23T14:28:08.025Z,1.08
2022-12-23T14:30:31.498Z,1.10
2022-12-23T14:33:01.277Z,1.13
2022-12-23T14:35:20.991Z,1.09
2022-12-23T14:37:24.518Z,1.12
2022-12-23T14:39:34.416Z,1.05
2022-12-23T14:41:51.960Z,1.07
2022-12-23T14:43:56.787Z,1.08
2022-12-23T14:46:02.454Z,1.10
2022-12-23T14:48:33.502Z,1.13
2022-12-23T14:50:40.026Z,1.13
2022-12-23T14:52:58.947Z,1.14
2022-12-23T14:55:31.507Z,1.10
2022-12-23T14:57:35.976Z,1.11
2022-12-23T14:59:56.990Z,1.09
2022-12-23T15:02:04.446Z,1.04
2022-12-23T15:04:26.290Z,1.05
2022-12-23T15:06:43.052Z,1.06
2022-12-23T15:08:47.829Z,1.04
2022-12-23T15:10:50.954Z,1.01
2022-12-23T15:12:57.993Z,1.04
2022-12-23T15:15:05.313Z,1.03
2022-12-23T15:17:25.674Z,1.04
2022-12-23T15:19:28.978Z,1.02
2022-12-23T15:21:34.888Z,1.01
2022-12-23T15:23:37.935Z,1.06
2022-12-23T15:25:46.321Z,1.08
2022-12-23T15:27:49.410Z,1.10
2022-12-23T15:29:53.848Z,1.10
2022-12-23T15:31:59.092Z,1.12
2022-12-23T15:34:13.300Z,1.07
2022-12-23T15:36:30.847Z,1.08
2022-12-23T15:38:38.270Z,1.10
2022-12-23T15:40:40.968Z,1.11
2022-12-23T15:42:49.099Z,1.11
2022-12-23T15:44:52.539Z,1.12
2022-12-23T15:46:55.431Z,1.10
2022-12-23T15:48:58.593Z,1.10
2022-12-23T15:51:08.462Z,1.09
2022-12-23T15:53:16.195Z,1.09
2022-12-23T15:55:28.072Z,1.08
2022-12-23T15:57:31.635Z,1.05
2022-12-23T15:59:38.800Z,1.09
2022-12-23T16:01:42.397Z,1.06
2022-12-23T16:03:53.025Z,0.99
2022-12-23T16:06:05.983Z,0.99
2022-12-23T16:08:16.349Z,0.97
2022-12-23T16:10:22.707Z,0.98
2022-12-23T16:12:27.730Z,0.98
2022-12-23T16:14:39.718Z,1.03
2022-12-23T16:16:43.630Z,1.06
2022-12-23T16:18:47.776Z,1.05
2022-12-23T16:20:58.336Z,1.03
2022-12-23T16:23:03.031Z,1.06
2022-12-23T16:25:15.422Z,1.07
2022-12-23T16:27:20.862Z,1.10
2022-12-23T16:29:23.548Z,1.13
2022-12-23T16:31:26.636Z,1.14
2022-12-23T16:33:39.924Z,1.15
2022-12-23T16:35:43.786Z,1.15
2022-12-23T16:37:51.122Z,1.20
2022-12-23T16:39:55.882Z,1.17
2022-12-23T16:41:58.461Z,1.24
2022-12-23T16:44:01.509Z,1.24
2022-12-23T16:46:04.722Z,1.24
2022-12-23T16:48:41.572Z,1.27
2022-12-23T16:50:45.813Z,1.29
2022-12-23T16:52:48.499Z,1.31
2022-12-23T16:54:51.107Z,1.34
2022-12-23T16:56:53.776Z,1.34
2022-12-23T16:58:56.531Z,1.32
2022-12-23T17:00:59.319Z,1.36
2022-12-23T17:03:02.040Z,1.34
2022-12-23T17:05:05.201Z,1.36
2022-12-23T17:07:12.693Z,1.30
2022-12-23T17:09:16.200Z,1.36
2022-12-23T17:11:25.109Z,1.34
2022-12-23T17:13:27.716Z,1.35
2022-12-23T17:15:30.285Z,1.33
2022-12-23T17:17:33.252Z,1.38
2022-12-23T17:19:35.953Z,1.40
2022-12-23T17:21:40.752Z,1.40
2022-12-23T17:23:43.438Z,1.40
2022-12-23T17:25:46.076Z,1.42
2022-12-23T17:27:54.001Z,1.38
2022-12-23T17:29:56.794Z,1.35
2022-12-23T17:31:59.700Z,1.37
2022-12-23T17:34:02.751Z,1.39
2022-12-23T17:36:05.766Z,1.44
2022-12-23T17:38:14.314Z,1.44
2022-12-23T17:40:17.903Z,1.44
2022-12-23T17:42:25.774Z,1.46
2022-12-23T17:44:28.829Z,1.50
2022-12-23T17:46:31.512Z,1.44
2022-12-23T17:48:34.132Z,1.41
2022-12-23T17:50:37.490Z,1.38
2022-12-23T17:52:40.218Z,1.41
2022-12-23T17:54:44.137Z,1.39
2022-12-23T17:56:46.708Z,1.39
2022-12-23T17:58:51.023Z,1.42
2022-12-23T18:00:53.761Z,1.39
2022-12-23T18:02:56.473Z,1.40
2022-12-23T18:05:00.071Z,1.43
2022-12-23T18:07:02.732Z,1.47
2022-12-23T18:09:05.488Z,1.45
2022-12-23T18:11:17.431Z,1.48
2022-12-23T18:13:20.545Z,1.50
2022-12-23T18:15:40.311Z,1.47
2022-12-23T18:17:43.020Z,1.49
2022-12-23T18:19:45.636Z,1.50
2022-12-23T18:21:48.602Z,1.51
2022-12-23T18:23:53.696Z,1.53
2022-12-23T18:25:57.620Z,1.51
2022-12-23T18:28:00.468Z,1.52
2022-12-23T18:30:03.187Z,1.52
2022-12-23T18:32:06.989Z,1.56
2022-12-23T18:34:17.626Z,1.55
2022-12-23T18:36:28.141Z,1.55
2022-12-23T18:38:31.386Z,1.56
2022-12-23T18:40:33.985Z,1.52
2022-12-23T18:42:36.619Z,1.59
2022-12-23T18:44:40.685Z,1.60
2022-12-23T18:46:43.646Z,1.59
2022-12-23T18:48:47.602Z,1.64
2022-12-23T18:50:50.262Z,1.68
2022-12-23T18:52:54.510Z,1.62
2022-12-23T18:54:57.258Z,1.62
2022-12-23T18:57:01.790Z,1.61
2022-12-23T18:59:04.473Z,1.55
2022-12-23T19:01:15.015Z,1.53
2022-12-23T19:03:25.045Z,1.52
2022-12-23T19:05:30.176Z,1.53
2022-12-23T19:07:32.835Z,1.53
2022-12-23T19:09:35.371Z,1.47
2022-12-23T19:11:37.938Z,1.47
2022-12-23T19:13:40.974Z,1.49
2022-12-23T19:15:44.528Z,1.45
2022-12-23T19:17:47.697Z,1.47
2022-12-23T19:19:50.416Z,1.41
2022-12-23T19:21:53.045Z,1.45
2022-12-23T19:23:55.639Z,1.45
2022-12-23T19:25:58.286Z,1.48
2022-12-23T19:28:00.854Z,1.47
2022-12-23T19:30:04.102Z,1.46
2022-12-23T19:32:07.645Z,1.43
2022-12-23T19:34:14.866Z,1.42
2022-12-23T19:36:22.865Z,1.41
2022-12-23T19:38:26.314Z,1.47
2022-12-23T19:40:29.364Z,1.43
2022-12-23T19:42:33.992Z,1.39
2022-12-23T19:44:36.682Z,1.42
2022-12-23T19:46:39.399Z,1.44
2022-12-23T19:48:42.876Z,1.43
2022-12-23T19:50:45.553Z,1.46
2022-12-23T19:52:50.238Z,1.46
2022-12-23T19:54:54.543Z,1.48
2022-12-23T19:56:57.292Z,1.45
2022-12-23T19:59:01.286Z,1.51
2022-12-23T20:01:06.906Z,1.56
2022-12-23T20:03:09.635Z,1.54
2022-12-23T20:05:12.301Z,1.57
2022-12-23T20:07:14.938Z,1.57
2022-12-23T20:09:18.087Z,1.57
2022-12-23T20:11:25.883Z,1.59
2022-12-23T20:13:28.469Z,1.59
2022-12-23T20:15:31.171Z,1.60
2022-12-23T20:17:33.787Z,1.54
2022-12-23T20:19:42.184Z,1.60
2022-12-23T20:21:48.425Z,1.59
2022-12-23T20:23:51.017Z,1.49
2022-12-23T20:25:53.604Z,1.49
2022-12-23T20:27:56.324Z,1.49
2022-12-23T20:29:58.945Z,1.44
2022-12-23T20:32:02.061Z,1.53
2022-12-23T20:34:11.397Z,1.58
2022-12-23T20:36:17.161Z,1.58
2022-12-23T20:38:20.508Z,1.57
2022-12-23T20:40:23.450Z,1.60
2022-12-23T20:42:27.723Z,1.61
2022-12-23T20:44:35.481Z,1.65
2022-12-23T20:46:38.659Z,1.66
2022-12-23T20:48:42.245Z,1.69
2022-12-23T20:50:44.929Z,1.73
2022-12-23T20:52:47.744Z,1.77
2022-12-23T20:54:50.397Z,1.81
2022-12-23T20:56:52.943Z,1.84
2022-12-23T20:58:57.720Z,1.82
2022-12-23T21:01:11.208Z,1.82
2022-12-23T21:03:14.264Z,1.83
2022-12-23T21:05:17.109Z,1.85
2022-12-23T21:07:19.669Z,1.87
2022-12-23T21:09:22.287Z,1.86
2022-12-23T21:11:25.022Z,1.82
2022-12-23T21:13:27.680Z,1.86
2022-12-23T21:15:33.609Z,1.91
2022-12-23T21:17:36.226Z,1.90
2022-12-23T21:19:38.821Z,1.93
2022-12-23T21:21:41.416Z,1.95
2022-12-23T21:23:44.578Z,1.96
2022-12-23T21:25:47.214Z,1.96
2022-12-23T21:27:51.297Z,1.93
2022-12-23T21:29:54.094Z,1.97
2022-12-23T21:31:56.947Z,2.01
2022-12-23T21:34:00.446Z,1.98
2022-12-23T21:36:03.529Z,2.00
2022-12-23T21:38:06.144Z,2.01
2022-12-23T21:40:09.372Z,2.01
2022-12-23T21:42:12.188Z,1.95
2022-12-23T21:44:15.079Z,2.00
2022-12-23T21:46:20.560Z,2.04
2022-12-23T21:48:23.332Z,2.06
2022-12-23T21:50:25.937Z,2.08
2022-12-23T21:52:28.584Z,2.07
2022-12-23T21:54:31.315Z,2.06
2022-12-23T21:56:33.957Z,2.06
2022-12-23T21:58:37.247Z,2.01
2022-12-23T22:00:39.898Z,2.03
2022-12-23T22:02:42.486Z,2.01
2022-12-23T22:04:45.163Z,2.03
2022-12-23T22:06:47.855Z,2.03
2022-12-23T22:08:52.335Z,2.01
2022-12-23T22:10:54.921Z,2.05
2022-12-23T22:12:57.565Z,2.06
2022-12-23T22:15:00.700Z,2.02
2022-12-23T22:17:05.985Z,2.01
2022-12-23T22:19:09.522Z,2.04
2022-12-23T22:21:14.983Z,2.00
2022-12-23T22:23:17.639Z,2.03
2022-12-23T22:25:20.271Z,2.06
2022-12-23T22:27:22.814Z,2.04
2022-12-23T22:29:25.474Z,2.05
2022-12-23T22:31:44.895Z,2.08
2022-12-23T22:33:47.947Z,2.06
2022-12-23T22:35:55.641Z,2.04
2022-12-23T22:37:59.374Z,2.07
2022-12-23T22:40:01.937Z,2.09
2022-12-23T22:42:06.183Z,2.11
2022-12-23T22:44:11.670Z,2.13
2022-12-23T22:46:14.673Z,2.10
2022-12-23T22:48:17.233Z,2.09
2022-12-23T22:50:19.874Z,2.13
2022-12-23T22:52:22.410Z,2.09
2022-12-23T22:54:25.044Z,2.10
2022-12-23T22:56:27.665Z,2.07
2022-12-23T22:58:31.591Z,2.12
2022-12-23T23:00:34.230Z,2.14
2022-12-23T23:02:36.803Z,2.14
2022-12-23T23:04:39.433Z,2.16
2022-12-23T23:06:42.711Z,2.12
2022-12-23T23:08:45.271Z,2.16
2022-12-23T23:10:47.914Z,2.13
2022-12-23T23:12:50.505Z,2.15
2022-12-23T23:14:53.151Z,2.12
2022-12-23T23:16:55.769Z,2.11
2022-12-23T23:18:59.936Z,2.13
2022-12-23T23:21:02.595Z,2.14
2022-12-23T23:23:05.251Z,2.12
2022-12-23T23:25:08.248Z,2.15
2022-12-23T23:27:11.261Z,2.18
2022-12-23T23:29:13.863Z,2.20
2022-12-23T23:31:41.428Z,2.23
2022-12-23T23:33:39.304Z,2.16
2022-12-23T23:35:42.015Z,2.14
2022-12-23T23:37:44.727Z,2.14
2022-12-23T23:39:47.444Z,2.13
2022-12-23T23:41:51.231Z,2.11
2022-12-23T23:43:53.846Z,2.12
2022-12-23T23:45:56.632Z,2.10
2022-12-23T23:47:59.248Z,2.12
2022-12-23T23:50:02.519Z,2.13
2022-12-23T23:52:05.722Z,2.16
2022-12-23T23:54:08.751Z,2.17
2022-12-23T23:56:11.388Z,2.20
2022-12-23T23:58:13.963Z,2.19
